Chickamauga Observed Data For Previous 48 Hours

Caption
Day and Hour Reservoir Elevation (behind dam)* Tailwater Elevation (below dam)* Average Hourly Discharge*
4/22/2018 2 AM EDT 681.33 636.02 34,611
4/22/2018 3 AM EDT 681.26 635.99 34,745
4/22/2018 4 AM EDT 681.08 636.00 34,550
4/22/2018 5 AM EDT 680.97 636.03 34,584
4/22/2018 6 AM EDT 680.97 636.11 34,574
4/22/2018 7 AM EDT 680.95 636.14 34,722
4/22/2018 8 AM EDT 680.95 636.23 34,615
4/22/2018 9 AM EDT 680.92 636.30 34,709
4/22/2018 10 AM EDT 680.86 636.34 34,636
4/22/2018 11 AM EDT 680.85 636.38 34,609
4/22/2018 12 PM EDT 680.84 636.39 34,550
4/22/2018 1 PM EDT 680.83 636.35 34,541
4/22/2018 2 PM EDT 680.80 636.34 34,464
4/22/2018 3 PM EDT 680.78 636.35 34,617
4/22/2018 4 PM EDT 680.80 636.34 34,562
4/22/2018 5 PM EDT 680.74 636.38 34,546
4/22/2018 6 PM EDT 680.76 636.36 34,596
4/22/2018 7 PM EDT 680.76 636.34 34,622
4/22/2018 8 PM EDT 680.73 636.38 34,527
4/22/2018 9 PM EDT 680.70 636.38 34,632
4/22/2018 10 PM EDT 680.70 636.36 34,447
4/22/2018 11 PM EDT 680.67 636.39 34,473
4/23/2018 12 AM EDT 680.69 636.41 34,432
4/23/2018 1 AM EDT 680.65 636.43 34,534
4/23/2018 2 AM EDT 680.67 636.52 34,564
4/23/2018 3 AM EDT 680.62 636.64 34,639
4/23/2018 4 AM EDT 680.59 636.72 34,512
4/23/2018 5 AM EDT 680.70 636.76 34,553
4/23/2018 6 AM EDT 680.79 636.81 34,546
4/23/2018 7 AM EDT 680.87 636.84 34,591
4/23/2018 8 AM EDT 680.93 636.93 34,647
4/23/2018 9 AM EDT 681.01 637.03 34,783
4/23/2018 10 AM EDT 681.08 637.09 34,718
4/23/2018 11 AM EDT 681.12 637.16 34,867
4/23/2018 12 PM EDT 681.17 637.25 34,699
4/23/2018 1 PM EDT 681.24 637.31 34,753
4/23/2018 2 PM EDT 681.38 636.12 23,120
4/23/2018 3 PM EDT 681.51 635.93 19,656
4/23/2018 4 PM EDT 681.60 635.85 19,818
4/23/2018 5 PM EDT 681.71 635.84 19,767
4/23/2018 6 PM EDT 681.78 635.91 19,821
4/23/2018 7 PM EDT 681.87 636.01 19,812
4/23/2018 8 PM EDT 681.93 636.15 19,744
4/23/2018 9 PM EDT 682.05 636.25 19,799
4/23/2018 10 PM EDT 682.26 635.97 16,387
4/23/2018 11 PM EDT 682.24 635.98 13,684
4/24/2018 12 AM EDT 682.20 635.94 13,652
4/24/2018 1 AM EDT 682.30 635.81 13,696
4/24/2018 2 AM EDT 682.43 635.72 13,597
4/24/2018 3 AM EDT 682.59 635.61 13,585
4/24/2018 4 AM EDT 682.74 635.49 13,611
4/24/2018 5 AM EDT 682.77 635.38 13,653
4/24/2018 6 AM EDT 682.78 635.23 13,675
4/24/2018 7 AM EDT 682.78 635.64 14,341
4/24/2018 8 AM EDT 682.77 637.18 33,760
4/24/2018 9 AM EDT 682.93 636.02 27,222
4/24/2018 10 AM EDT 683.00 636.15 22,374
4/24/2018 11 AM EDT 683.09 636.11 22,517
4/24/2018 12 PM EDT 683.14 636.09 22,226
4/24/2018 1 PM EDT 683.18 636.20 22,064
4/24/2018 2 PM EDT 683.19 636.32 22,083
4/24/2018 3 PM EDT 683.03 637.53 24,103
4/24/2018 4 PM EDT 683.06 637.94 32,893
4/24/2018 5 PM EDT 683.12 638.19 32,807
4/24/2018 6 PM EDT 683.16 638.29 32,782
4/24/2018 7 PM EDT 683.20 638.38 32,718
4/24/2018 8 PM EDT 683.27 638.42 32,843
4/24/2018 9 PM EDT 683.23 638.47 32,695
4/24/2018 10 PM EDT 683.25 638.49 32,877

Elevations are in feet above sea level. Discharges are in cubic feet per second and are reported at the end of the hour.